createdAt,value
2017-12-15T00:02:35.499Z,4.80
2017-12-15T00:07:37.101Z,4.80
2017-12-15T00:12:39.354Z,5.00
2017-12-15T00:17:40.955Z,4.90
2017-12-15T00:22:43.234Z,4.90
2017-12-15T00:27:45.518Z,4.80
2017-12-15T00:32:47.785Z,4.80
2017-12-15T00:37:49.316Z,4.70
2017-12-15T00:42:50.829Z,4.70
2017-12-15T00:47:52.325Z,4.60
2017-12-15T00:52:53.990Z,4.60
2017-12-15T00:57:55.655Z,4.70
2017-12-15T01:02:57.959Z,4.70
2017-12-15T01:07:59.473Z,4.60
2017-12-15T01:13:01.013Z,4.70
2017-12-15T01:18:02.495Z,4.60
2017-12-15T01:23:04.049Z,4.60
2017-12-15T01:28:05.685Z,4.60
2017-12-15T01:33:07.236Z,4.60
2017-12-15T01:38:09.532Z,4.30
2017-12-15T01:43:11.765Z,4.30
2017-12-15T01:48:13.280Z,4.20
2017-12-15T01:53:15.526Z,4.40
2017-12-15T01:58:17.005Z,4.30
2017-12-15T02:03:18.549Z,4.40
2017-12-15T02:08:20.063Z,4.30
2017-12-15T02:13:22.336Z,4.30
2017-12-15T02:18:23.853Z,4.30
2017-12-15T02:23:25.369Z,4.40
2017-12-15T02:28:27.050Z,4.40
2017-12-15T02:33:29.369Z,4.30
2017-12-15T02:38:30.888Z,4.20
2017-12-15T02:43:32.394Z,4.30
2017-12-15T02:48:33.926Z,4.20
2017-12-15T02:53:35.429Z,4.20
2017-12-15T02:58:36.935Z,4.20
2017-12-15T03:03:38.434Z,4.30
2017-12-15T03:08:40.693Z,4.50
2017-12-15T03:13:42.236Z,4.40
2017-12-15T03:18:43.785Z,4.50
2017-12-15T03:23:45.275Z,4.50
2017-12-15T03:28:46.819Z,4.40
2017-12-15T03:33:48.319Z,4.50
2017-12-15T03:38:49.880Z,4.50
2017-12-15T03:43:51.413Z,4.20
2017-12-15T03:48:52.932Z,4.10
2017-12-15T03:53:54.434Z,4.00
2017-12-15T03:58:56.761Z,3.80
2017-12-15T04:03:58.283Z,3.70
2017-12-15T04:09:00.521Z,3.60
2017-12-15T04:14:02.064Z,3.50
2017-12-15T04:19:03.537Z,3.50
2017-12-15T04:24:05.045Z,3.30
2017-12-15T04:29:06.601Z,3.30
2017-12-15T04:34:08.135Z,3.20
2017-12-15T04:39:09.669Z,3.10
2017-12-15T04:44:11.965Z,3.00
2017-12-15T04:49:14.205Z,3.00
2017-12-15T04:54:15.800Z,2.90
2017-12-15T04:59:18.073Z,2.90
2017-12-15T05:04:20.303Z,2.90
2017-12-15T05:09:21.812Z,2.80
2017-12-15T05:14:23.304Z,2.80
2017-12-15T05:19:24.944Z,2.80
2017-12-15T05:24:26.534Z,2.70
2017-12-15T05:29:28.050Z,2.70
2017-12-15T05:34:29.524Z,2.80
2017-12-15T05:39:31.151Z,2.70
2017-12-15T05:44:33.478Z,2.70
2017-12-15T05:49:35.673Z,2.70
2017-12-15T05:54:37.185Z,2.70
2017-12-15T05:59:39.414Z,2.80
2017-12-15T06:04:40.931Z,2.80
2017-12-15T06:09:42.421Z,2.90
2017-12-15T06:14:43.953Z,3.00
2017-12-15T06:19:45.488Z,3.10
2017-12-15T06:24:47.074Z,3.20
2017-12-15T06:29:48.621Z,3.30
2017-12-15T06:34:50.113Z,3.40
2017-12-15T06:39:51.709Z,3.40
2017-12-15T06:44:53.969Z,3.50
2017-12-15T06:49:55.472Z,3.40
2017-12-15T06:54:57.795Z,3.60
2017-12-15T06:59:59.320Z,3.50
2017-12-15T07:05:01.512Z,3.60
2017-12-15T07:10:03.769Z,3.70
2017-12-15T07:15:05.382Z,3.70
2017-12-15T07:20:06.926Z,3.80
2017-12-15T07:25:09.214Z,3.80
2017-12-15T07:30:11.494Z,3.90
2017-12-15T07:35:13.791Z,3.90
2017-12-15T07:40:16.046Z,3.90
2017-12-15T07:45:17.613Z,3.80
2017-12-15T07:50:19.128Z,3.90
2017-12-15T07:55:20.636Z,3.90
2017-12-15T08:00:22.148Z,4.10
2017-12-15T08:05:23.641Z,4.10
2017-12-15T08:10:25.164Z,4.20
2017-12-15T08:15:27.381Z,4.20
2017-12-15T08:20:28.884Z,4.20
2017-12-15T08:25:30.421Z,4.30
2017-12-15T08:30:31.905Z,4.30
2017-12-15T08:35:33.630Z,4.30
2017-12-15T08:40:35.925Z,4.30
2017-12-15T08:45:37.433Z,4.30
2017-12-15T08:50:38.913Z,4.30
2017-12-15T08:55:40.441Z,4.40
2017-12-15T09:00:42.217Z,4.40
2017-12-15T09:05:43.737Z,4.30
2017-12-15T09:10:45.282Z,4.10
2017-12-15T09:15:47.025Z,4.00
2017-12-15T09:20:48.601Z,3.90
2017-12-15T09:25:50.081Z,3.80
2017-12-15T09:30:51.631Z,3.60
2017-12-15T09:35:53.264Z,3.40
2017-12-15T09:40:55.525Z,3.10
2017-12-15T09:45:57.083Z,3.10
2017-12-15T09:50:58.613Z,3.00
2017-12-15T09:56:00.099Z,2.90
2017-12-15T10:01:01.621Z,2.90
2017-12-15T10:06:03.884Z,2.70
2017-12-15T10:11:05.521Z,2.70
2017-12-15T10:16:07.058Z,2.70
2017-12-15T10:21:08.579Z,2.60
2017-12-15T10:26:10.095Z,2.50
2017-12-15T10:31:11.725Z,2.40
2017-12-15T10:36:13.237Z,2.40
2017-12-15T10:41:14.788Z,2.40
2017-12-15T10:46:17.039Z,2.40
2017-12-15T10:51:18.572Z,2.40
2017-12-15T10:56:20.069Z,2.30
2017-12-15T11:01:21.781Z,2.30
2017-12-15T11:06:24.042Z,2.40
2017-12-15T11:11:25.575Z,2.30
2017-12-15T11:16:27.088Z,2.60
2017-12-15T11:21:29.340Z,2.40
2017-12-15T11:26:30.910Z,2.30
2017-12-15T11:31:32.545Z,2.40
2017-12-15T11:36:34.080Z,2.40
2017-12-15T11:41:36.330Z,2.60
2017-12-15T11:46:37.861Z,2.60
2017-12-15T11:51:39.367Z,2.60
2017-12-15T11:56:40.822Z,2.70
2017-12-15T12:01:42.321Z,2.60
2017-12-15T12:06:44.576Z,2.70
2017-12-15T12:11:46.049Z,2.70
2017-12-15T12:16:47.599Z,2.90
2017-12-15T12:21:49.951Z,2.90
2017-12-15T12:26:51.466Z,2.90
2017-12-15T12:31:53.001Z,3.10
2017-12-15T12:36:54.602Z,3.20
2017-12-15T12:41:56.148Z,3.00
2017-12-15T12:46:57.663Z,3.10
2017-12-15T12:51:59.201Z,3.10
2017-12-15T12:57:00.802Z,3.10
2017-12-15T13:02:03.010Z,3.10
2017-12-15T13:07:04.765Z,3.10
2017-12-15T13:12:07.023Z,3.10
2017-12-15T13:17:08.707Z,3.00
2017-12-15T13:22:10.233Z,3.30
2017-12-15T13:27:11.765Z,3.30
2017-12-15T13:32:14.066Z,3.40
2017-12-15T13:37:15.579Z,3.40
2017-12-15T13:42:17.114Z,3.40
2017-12-15T13:47:18.606Z,3.60
2017-12-15T13:52:20.200Z,3.50
2017-12-15T13:57:21.753Z,3.80
2017-12-15T14:02:23.280Z,3.90
2017-12-15T14:07:24.780Z,4.20
2017-12-15T14:12:26.297Z,4.30
2017-12-15T14:17:27.833Z,4.30
2017-12-15T14:22:29.342Z,4.40
2017-12-15T14:27:30.869Z,4.30
2017-12-15T14:32:32.469Z,4.30
2017-12-15T14:37:34.014Z,4.40
2017-12-15T14:42:36.305Z,4.40
2017-12-15T14:47:37.853Z,4.40
2017-12-15T14:52:39.451Z,4.40
2017-12-15T14:57:41.758Z,4.40
2017-12-15T15:02:43.314Z,4.30
2017-12-15T15:07:44.821Z,4.40
2017-12-15T15:12:46.370Z,4.40
2017-12-15T15:17:47.917Z,4.30
2017-12-15T15:22:49.585Z,4.30
2017-12-15T15:27:51.153Z,4.30
2017-12-15T15:32:52.717Z,4.20
2017-12-15T15:37:55.072Z,4.20
2017-12-15T15:42:56.620Z,4.10
2017-12-15T15:47:58.149Z,4.20
2017-12-15T15:52:59.689Z,4.40
2017-12-15T15:58:01.259Z,4.30
2017-12-15T16:03:03.561Z,4.30
2017-12-15T16:08:05.120Z,4.20
2017-12-15T16:13:07.424Z,4.20
2017-12-15T16:18:08.945Z,4.20
2017-12-15T16:23:10.537Z,4.30
2017-12-15T16:28:12.846Z,4.40
2017-12-15T16:33:14.357Z,4.30
2017-12-15T16:38:16.016Z,4.40
2017-12-15T16:43:17.539Z,4.30
2017-12-15T16:48:19.857Z,4.20
2017-12-15T16:53:21.386Z,4.10
2017-12-15T16:58:23.787Z,4.20
2017-12-15T17:03:25.475Z,4.10
2017-12-15T17:08:26.972Z,4.20
2017-12-15T17:13:28.478Z,4.10
2017-12-15T17:18:30.750Z,3.90
2017-12-15T17:23:33.011Z,3.90
2017-12-15T17:28:34.717Z,3.90
2017-12-15T17:33:36.976Z,3.70
2017-12-15T17:38:38.525Z,3.60
2017-12-15T17:43:40.105Z,3.80
2017-12-15T17:48:41.600Z,3.90
2017-12-15T17:53:43.876Z,4.00
2017-12-15T17:58:45.354Z,3.90
2017-12-15T18:03:47.658Z,3.70
2017-12-15T18:08:49.192Z,3.60
2017-12-15T18:13:50.685Z,3.60
2017-12-15T18:18:52.192Z,3.80
2017-12-15T18:23:53.658Z,3.80
2017-12-15T18:28:56.016Z,3.60
2017-12-15T18:33:57.550Z,3.60
2017-12-15T18:38:59.801Z,3.10
2017-12-15T18:44:01.341Z,3.10
2017-12-15T18:49:02.894Z,3.00
2017-12-15T18:54:04.613Z,3.10
2017-12-15T18:59:06.112Z,2.90
2017-12-15T19:04:08.501Z,3.00
2017-12-15T19:09:10.750Z,2.80
2017-12-15T19:14:12.340Z,2.70
2017-12-15T19:19:13.864Z,2.60
2017-12-15T19:24:15.372Z,2.60
2017-12-15T19:29:16.903Z,2.70
2017-12-15T19:34:18.423Z,2.80
2017-12-15T19:39:20.663Z,2.90
2017-12-15T19:44:22.347Z,2.90
2017-12-15T19:49:23.919Z,3.00
2017-12-15T19:54:25.442Z,3.00
2017-12-15T19:59:26.974Z,3.10
2017-12-15T20:04:29.379Z,3.20
2017-12-15T20:09:31.742Z,3.30
2017-12-15T20:14:33.261Z,3.20
2017-12-15T20:19:35.001Z,3.20
2017-12-15T20:24:44.135Z,2.90
2017-12-15T20:29:46.553Z,2.90
2017-12-15T20:34:48.070Z,2.80
2017-12-15T20:39:49.704Z,3.00
2017-12-15T20:44:51.189Z,3.00
2017-12-15T20:49:52.702Z,3.20
2017-12-15T20:54:55.048Z,3.20
2017-12-15T20:59:56.610Z,3.10
2017-12-15T21:04:58.212Z,3.10
2017-12-15T21:09:59.785Z,3.20
2017-12-15T21:15:01.355Z,3.30
2017-12-15T21:20:03.610Z,3.30
2017-12-15T21:25:05.155Z,3.30
2017-12-15T21:30:06.674Z,3.40
2017-12-15T21:35:08.975Z,3.30
2017-12-15T21:40:11.336Z,3.30
2017-12-15T21:45:12.913Z,3.30
2017-12-15T21:50:14.427Z,3.30
2017-12-15T21:55:15.974Z,3.40
2017-12-15T22:00:17.489Z,3.40
2017-12-15T22:05:19.053Z,3.40
2017-12-15T22:10:20.563Z,3.30
2017-12-15T22:15:22.928Z,3.30
2017-12-15T22:20:24.468Z,3.30
2017-12-15T22:25:25.968Z,3.30
2017-12-15T22:30:27.494Z,3.30
2017-12-15T22:35:28.979Z,3.30
2017-12-15T22:40:30.422Z,3.30
2017-12-15T22:45:31.936Z,3.30
2017-12-15T22:50:33.432Z,3.30
2017-12-15T22:55:34.988Z,3.30
2017-12-15T23:00:37.216Z,3.30
2017-12-15T23:05:38.716Z,3.20
2017-12-15T23:10:40.204Z,3.30
2017-12-15T23:15:42.479Z,3.40
2017-12-15T23:20:44.001Z,3.30
2017-12-15T23:25:45.561Z,3.30
2017-12-15T23:30:47.105Z,3.30
2017-12-15T23:35:48.608Z,3.30
2017-12-15T23:40:50.113Z,3.40
2017-12-15T23:45:51.712Z,3.30
2017-12-15T23:50:53.217Z,3.30
2017-12-15T23:56:13.171Z,3.30
